Time;durP1;ratioP1;P1;durP2;ratioP2;P2;SDS_P1;SDS_P2;PMS_P1;PMS_P2;Temp;Humidity;BMP_temperature;BMP_pressure;BME280_temperature;BME280_humidity;BME280_pressure;Samples;Min_cycle;Max_cycle;Signal;HPM_P1;HPM_P2
2021/01/09 00:00:58;;;;;;;15.60;11.02;;;2.00;96.60;;;;;;5051595;28;20204;-79
2021/01/09 00:03:24;;;;;;;16.00;11.60;;;2.10;96.50;;;;;;5051467;28;20231;-80
2021/01/09 00:05:52;;;;;;;13.02;10.85;;;2.20;96.30;;;;;;5052112;28;20204;-79
2021/01/09 00:08:18;;;;;;;16.98;12.20;;;2.30;96.40;;;;;;5051529;28;20276;-80
2021/01/09 00:10:45;;;;;;;13.77;11.40;;;2.40;96.20;;;;;;5051480;28;20629;-79
2021/01/09 00:13:11;;;;;;;16.65;11.65;;;2.00;95.60;;;;;;5051822;28;20219;-79
2021/01/09 00:15:38;;;;;;;12.57;9.80;;;2.10;96.00;;;;;;5051089;28;20200;-80
2021/01/09 00:18:04;;;;;;;13.68;10.65;;;2.00;95.90;;;;;;5051604;28;20200;-79
2021/01/09 00:20:31;;;;;;;12.32;10.77;;;1.90;95.60;;;;;;5051696;28;20485;-79
2021/01/09 00:22:58;;;;;;;13.02;10.30;;;1.90;95.90;;;;;;5051365;28;20257;-79
2021/01/09 00:25:24;;;;;;;12.05;9.80;;;2.10;96.30;;;;;;5051378;28;20200;-79
2021/01/09 00:27:51;;;;;;;11.45;9.57;;;2.10;96.10;;;;;;5050972;28;20207;-79
2021/01/09 00:30:18;;;;;;;12.80;10.43;;;2.20;96.30;;;;;;5050533;28;20196;-79
2021/01/09 00:32:46;;;;;;;12.65;10.35;;;2.10;95.80;;;;;;5051438;28;20199;-79
2021/01/09 00:35:12;;;;;;;14.23;11.05;;;2.10;95.80;;;;;;5051502;28;20626;-79
2021/01/09 00:37:39;;;;;;;14.75;11.32;;;2.10;96.10;;;;;;5050836;28;20200;-79
2021/01/09 00:40:07;;;;;;;14.40;11.05;;;2.10;96.20;;;;;;5051007;28;20211;-79
2021/01/09 00:42:38;;;;;;;11.45;9.73;;;2.00;96.00;;;;;;5050028;28;20261;-80
2021/01/09 00:45:06;;;;;;;13.32;10.73;;;2.20;96.20;;;;;;5051649;28;20196;-79
2021/01/09 00:47:32;;;;;;;16.02;11.43;;;2.30;96.10;;;;;;5050941;28;20208;-79
2021/01/09 00:49:58;;;;;;;11.32;9.90;;;2.30;95.90;;;;;;5051304;28;20211;-80
2021/01/09 00:52:25;;;;;;;13.45;9.77;;;2.40;95.90;;;;;;5050829;28;20210;-79
2021/01/09 00:54:51;;;;;;;16.83;12.00;;;2.40;95.90;;;;;;5049996;28;20208;-79
2021/01/09 00:57:18;;;;;;;14.60;11.40;;;2.50;95.60;;;;;;5050013;28;20231;-79
2021/01/09 00:59:48;;;;;;;16.25;11.70;;;2.50;95.60;;;;;;5050843;28;20195;-80
2021/01/09 01:02:14;;;;;;;14.30;10.75;;;2.60;95.50;;;;;;5050980;28;20287;-80
2021/01/09 01:04:44;;;;;;;13.68;11.25;;;2.50;95.50;;;;;;5051233;28;20192;-79
2021/01/09 01:07:12;;;;;;;13.48;11.30;;;2.50;95.50;;;;;;5050679;28;20525;-79
2021/01/09 01:09:40;;;;;;;15.32;9.55;;;2.50;95.30;;;;;;5050346;28;20192;-78
2021/01/09 01:12:07;;;;;;;14.85;11.25;;;2.40;95.20;;;;;;5051739;28;20527;-79
2021/01/09 01:14:35;;;;;;;12.13;10.13;;;2.50;95.30;;;;;;5051134;28;20228;-79
2021/01/09 01:17:01;;;;;;;15.23;10.60;;;2.40;95.10;;;;;;5050789;28;20516;-79
2021/01/09 01:19:28;;;;;;;12.93;9.45;;;2.50;95.40;;;;;;5050435;28;20278;-80
2021/01/09 01:21:54;;;;;;;11.32;10.05;;;2.50;95.40;;;;;;5050668;28;20205;-79
2021/01/09 01:24:21;;;;;;;13.95;10.70;;;2.50;95.50;;;;;;5050499;28;20216;-80
2021/01/09 01:26:47;;;;;;;15.07;10.68;;;2.50;95.20;;;;;;5049982;28;20549;-80
2021/01/09 01:29:14;;;;;;;15.20;11.13;;;2.20;95.20;;;;;;5049875;28;20196;-79
2021/01/09 01:31:41;;;;;;;15.52;11.55;;;2.20;95.70;;;;;;5050625;28;20196;-79
2021/01/09 01:34:07;;;;;;;12.55;10.45;;;2.30;95.70;;;;;;5050103;28;20200;-80
2021/01/09 01:36:34;;;;;;;13.93;11.32;;;2.10;95.50;;;;;;5050561;28;20203;-79
2021/01/09 01:39:00;;;;;;;11.55;9.05;;;2.10;95.70;;;;;;5048933;28;20220;-79
2021/01/09 01:41:27;;;;;;;11.77;9.55;;;2.20;96.00;;;;;;5050713;28;20215;-80
2021/01/09 01:43:53;;;;;;;15.73;10.43;;;2.30;96.10;;;;;;5050154;28;20223;-79
2021/01/09 01:46:20;;;;;;;16.02;10.75;;;2.40;96.00;;;;;;5050837;28;20560;-79
2021/01/09 01:48:48;;;;;;;13.38;10.80;;;2.40;95.90;;;;;;5050075;28;20237;-79
2021/01/09 01:51:14;;;;;;;14.50;10.45;;;2.40;95.90;;;;;;5049279;28;20653;-79
2021/01/09 01:53:41;;;;;;;12.65;10.50;;;2.40;95.70;;;;;;5053053;28;20524;-79
2021/01/09 01:56:08;;;;;;;13.98;10.90;;;2.40;95.60;;;;;;5034321;28;20207;-79
2021/01/09 01:58:34;;;;;;;13.82;10.80;;;2.50;95.50;;;;;;5033464;28;20197;-79
2021/01/09 02:01:00;;;;;;;12.30;10.98;;;2.40;95.30;;;;;;5054498;28;20242;-79
2021/01/09 02:03:28;;;;;;;11.75;10.10;;;2.40;95.40;;;;;;5053919;28;20224;-79
2021/01/09 02:06:06;;;;;;;12.02;10.82;;;2.30;95.30;;;;;;5053972;28;20681;-79
2021/01/09 02:08:38;;;;;;;11.55;9.88;;;2.40;95.40;;;;;;5048902;28;20858;-79
2021/01/09 02:11:14;;;;;;;13.95;10.57;;;2.30;95.60;;;;;;5050696;28;20341;-79
2021/01/09 02:13:46;;;;;;;14.50;10.98;;;2.40;95.30;;;;;;5047361;28;20228;-79
2021/01/09 02:16:16;;;;;;;12.98;10.65;;;2.40;95.20;;;;;;5052385;28;20245;-79
2021/01/09 02:18:46;;;;;;;13.25;11.07;;;2.40;95.20;;;;;;5052795;28;20203;-79
2021/01/09 02:21:25;;;;;;;14.18;10.55;;;2.50;95.50;;;;;;5054085;28;20212;-80
2021/01/09 02:23:54;;;;;;;15.38;11.85;;;2.60;95.60;;;;;;5053426;28;20240;-79
2021/01/09 02:26:22;;;;;;;15.32;11.30;;;2.60;95.50;;;;;;5053803;28;20202;-79
2021/01/09 02:28:49;;;;;;;16.20;12.07;;;2.60;95.50;;;;;;5051115;28;20227;-79
2021/01/09 02:31:22;;;;;;;18.10;13.25;;;2.60;95.50;;;;;;5053736;28;20219;-79
2021/01/09 02:33:50;;;;;;;15.98;11.18;;;2.60;95.40;;;;;;5053283;28;20287;-79
2021/01/09 02:36:18;;;;;;;16.17;12.70;;;2.60;95.50;;;;;;5053729;28;20204;-79
2021/01/09 02:38:45;;;;;;;17.05;11.50;;;2.60;95.60;;;;;;5052060;28;20230;-79
2021/01/09 02:41:15;;;;;;;14.57;11.40;;;2.60;95.60;;;;;;5053079;28;20204;-80
2021/01/09 02:43:42;;;;;;;15.73;11.27;;;2.60;95.70;;;;;;5053136;28;20235;-79
2021/01/09 02:46:09;;;;;;;19.52;12.48;;;2.60;95.60;;;;;;5053535;28;20287;-79
2021/01/09 02:48:37;;;;;;;14.10;10.93;;;2.60;95.60;;;;;;5052633;28;20192;-79
2021/01/09 02:51:05;;;;;;;13.68;11.18;;;2.50;96.00;;;;;;5052590;28;20579;-79
2021/01/09 02:53:32;;;;;;;14.52;11.68;;;2.60;95.90;;;;;;5052314;28;20208;-79
2021/01/09 02:56:00;;;;;;;19.08;13.00;;;2.60;95.80;;;;;;5053351;28;20282;-79
2021/01/09 02:58:29;;;;;;;14.82;10.85;;;2.60;95.90;;;;;;5052618;28;20200;-79
2021/01/09 03:00:56;;;;;;;16.20;11.70;;;2.60;96.00;;;;;;5052845;28;20208;-79
2021/01/09 03:03:22;;;;;;;15.85;12.10;;;2.70;96.10;;;;;;5052680;28;20215;-79
2021/01/09 03:05:49;;;;;;;17.83;12.35;;;2.70;96.00;;;;;;5052432;28;20196;-79
2021/01/09 03:08:15;;;;;;;17.38;13.30;;;2.60;96.10;;;;;;5032412;28;20244;-79
2021/01/09 03:10:42;;;;;;;17.17;12.63;;;2.60;96.20;;;;;;5050802;28;20199;-79
2021/01/09 03:13:08;;;;;;;18.15;13.65;;;2.60;96.30;;;;;;5053068;28;20291;-79
2021/01/09 03:15:35;;;;;;;22.02;13.68;;;2.50;96.10;;;;;;5052330;28;20645;-79
2021/01/09 03:18:02;;;;;;;20.08;13.68;;;2.50;96.30;;;;;;5052421;28;20208;-80
2021/01/09 03:20:28;;;;;;;22.80;13.85;;;2.50;96.50;;;;;;5052815;28;20226;-79
2021/01/09 03:22:55;;;;;;;16.92;13.45;;;2.30;96.30;;;;;;5052453;28;20266;-79
2021/01/09 03:25:21;;;;;;;16.00;12.63;;;2.00;96.50;;;;;;5051983;28;20905;-79
2021/01/09 03:27:48;;;;;;;20.83;13.88;;;2.00;97.00;;;;;;5051798;28;20196;-79
2021/01/09 03:30:15;;;;;;;15.40;13.10;;;2.10;97.30;;;;;;5052483;28;20489;-79
2021/01/09 03:32:42;;;;;;;14.00;12.15;;;2.10;97.10;;;;;;5052766;28;20200;-79
2021/01/09 03:35:09;;;;;;;17.83;13.00;;;2.20;97.30;;;;;;5052350;28;20211;-79
2021/01/09 03:37:35;;;;;;;15.88;12.98;;;2.00;97.00;;;;;;5051031;28;20209;-79
2021/01/09 03:40:03;;;;;;;17.33;12.80;;;2.10;97.20;;;;;;5051603;28;20215;-79
2021/01/09 03:42:29;;;;;;;16.60;12.10;;;2.20;97.40;;;;;;5052429;28;20239;-79
2021/01/09 03:44:55;;;;;;;14.85;12.43;;;2.20;97.20;;;;;;5051907;28;20238;-80
2021/01/09 03:47:22;;;;;;;21.10;14.73;;;2.20;97.20;;;;;;5051848;28;20210;-79
2021/01/09 03:49:49;;;;;;;18.48;13.48;;;2.20;97.00;;;;;;5051605;28;20228;-78
2021/01/09 03:52:15;;;;;;;15.68;12.27;;;2.10;97.40;;;;;;5050484;28;20207;-79
2021/01/09 03:54:42;;;;;;;17.67;14.02;;;2.30;97.60;;;;;;5051286;28;20204;-79
2021/01/09 03:57:09;;;;;;;19.90;14.75;;;2.30;97.20;;;;;;5051778;28;20196;-79
2021/01/09 03:59:35;;;;;;;16.65;13.02;;;2.10;96.90;;;;;;5051659;28;20204;-79
2021/01/09 04:02:01;;;;;;;25.20;14.70;;;2.20;97.30;;;;;;5052056;28;20216;-79
2021/01/09 04:04:28;;;;;;;18.02;13.55;;;2.40;97.50;;;;;;5051884;28;20218;-79
2021/01/09 04:06:56;;;;;;;19.13;15.07;;;2.50;97.40;;;;;;5051283;28;20297;-79
2021/01/09 04:09:22;;;;;;;16.17;12.90;;;2.50;97.10;;;;;;5051774;28;20192;-79
2021/01/09 04:11:49;;;;;;;18.48;13.80;;;2.50;97.10;;;;;;5051831;28;20633;-79
2021/01/09 04:14:15;;;;;;;19.60;13.85;;;2.40;97.10;;;;;;5051279;28;20204;-79
2021/01/09 04:16:41;;;;;;;20.55;14.45;;;2.50;97.00;;;;;;5050959;28;20254;-80
2021/01/09 04:19:08;;;;;;;20.13;14.18;;;2.50;97.00;;;;;;5051571;28;20202;-79
2021/01/09 04:21:43;;;;;;;18.33;14.20;;;2.60;96.90;;;;;;5051961;28;20271;-79
2021/01/09 04:24:12;;;;;;;20.48;14.48;;;2.70;96.70;;;;;;5051693;28;20222;-80
2021/01/09 04:26:40;;;;;;;21.77;14.50;;;2.80;96.40;;;;;;5052701;28;20287;-79
2021/01/09 04:29:07;;;;;;;20.00;14.50;;;2.70;96.30;;;;;;5050907;28;20759;-79
2021/01/09 04:31:34;;;;;;;21.90;14.93;;;2.80;96.40;;;;;;5052248;28;20548;-80
2021/01/09 04:34:02;;;;;;;23.38;15.52;;;2.80;96.30;;;;;;5051540;28;20286;-79
2021/01/09 04:36:29;;;;;;;22.80;15.27;;;2.80;96.60;;;;;;5052041;28;20591;-79
2021/01/09 04:38:56;;;;;;;19.95;14.05;;;2.70;96.30;;;;;;5051348;28;20648;-79
2021/01/09 04:41:26;;;;;;;23.25;14.18;;;2.40;96.60;;;;;;5052207;28;20200;-79
2021/01/09 04:43:53;;;;;;;20.80;15.48;;;2.40;97.20;;;;;;5051685;28;20227;-80
2021/01/09 04:46:23;;;;;;;22.80;13.95;;;2.20;99.90;;;;;;5051316;28;20200;-79
2021/01/09 04:48:50;;;;;;;19.40;15.38;;;2.20;97.20;;;;;;5051064;28;20695;-79
2021/01/09 04:51:18;;;;;;;20.95;14.55;;;2.40;97.60;;;;;;5050220;28;20729;-79
2021/01/09 04:53:47;;;;;;;20.42;13.68;;;2.30;97.40;;;;;;5050659;28;20196;-79
2021/01/09 04:56:14;;;;;;;22.88;13.85;;;2.30;97.40;;;;;;5051319;28;20674;-79
2021/01/09 04:58:42;;;;;;;19.58;13.52;;;2.20;97.30;;;;;;5050659;28;20231;-79
2021/01/09 05:01:08;;;;;;;21.80;14.30;;;2.10;97.50;;;;;;5050852;28;20318;-80
2021/01/09 05:03:34;;;;;;;18.73;13.75;;;2.30;97.80;;;;;;5050987;28;20215;-80
2021/01/09 05:06:01;;;;;;;21.88;14.52;;;2.50;97.80;;;;;;5051714;28;20200;-80
2021/01/09 05:08:27;;;;;;;20.52;15.43;;;2.60;97.60;;;;;;5050252;28;20254;-80
2021/01/09 05:10:54;;;;;;;21.70;16.48;;;2.50;97.60;;;;;;5051016;28;20196;-79
2021/01/09 05:13:22;;;;;;;24.83;16.08;;;2.60;97.40;;;;;;5050794;28;20250;-79
2021/01/09 05:15:50;;;;;;;24.73;15.45;;;2.70;97.30;;;;;;5050997;28;20735;-79
2021/01/09 05:18:17;;;;;;;21.67;15.48;;;2.70;97.10;;;;;;5050316;28;20509;-79
2021/01/09 05:20:44;;;;;;;20.55;14.60;;;2.70;96.90;;;;;;5051232;28;20231;-79
2021/01/09 05:23:11;;;;;;;25.75;17.35;;;2.80;96.90;;;;;;5051049;28;20216;-79
2021/01/09 05:25:38;;;;;;;23.15;15.90;;;2.70;96.70;;;;;;5050951;28;20246;-80
2021/01/09 05:28:06;;;;;;;21.10;15.77;;;2.70;96.70;;;;;;5052868;28;20672;-79
2021/01/09 05:30:35;;;;;;;22.98;16.35;;;2.80;96.80;;;;;;5055248;28;20249;-78
2021/01/09 05:33:02;;;;;;;21.73;16.35;;;2.80;97.00;;;;;;5055768;28;20215;-79
2021/01/09 05:35:30;;;;;;;24.77;15.65;;;2.50;97.10;;;;;;5055502;28;20580;-80
2021/01/09 05:37:56;;;;;;;26.75;17.50;;;2.50;97.40;;;;;;5054859;28;20257;-79
2021/01/09 05:40:23;;;;;;;21.35;15.20;;;2.60;97.50;;;;;;5055329;28;20199;-80
2021/01/09 05:42:51;;;;;;;22.42;16.10;;;3.90;98.00;;;;;;5054853;28;20245;-79
2021/01/09 05:45:19;;;;;;;21.60;15.88;;;2.70;97.20;;;;;;5055387;28;20226;-79
2021/01/09 05:47:45;;;;;;;23.10;16.10;;;2.80;97.00;;;;;;5054168;28;20188;-79
2021/01/09 05:50:14;;;;;;;26.88;17.40;;;2.80;96.90;;;;;;5054951;28;20365;-79
2021/01/09 05:52:41;;;;;;;23.67;17.58;;;2.80;96.80;;;;;;5053850;28;20281;-80
2021/01/09 05:55:08;;;;;;;23.83;16.27;;;2.80;96.80;;;;;;5054765;28;20265;-80
2021/01/09 05:57:36;;;;;;;27.23;17.23;;;2.70;96.80;;;;;;5054354;28;20195;-79
2021/01/09 06:00:06;;;;;;;28.25;18.77;;;2.80;97.00;;;;;;5054843;28;20200;-80
2021/01/09 06:02:47;;;;;;;22.63;17.27;;;2.80;97.10;;;;;;5054938;28;20261;-79
2021/01/09 06:05:18;;;;;;;22.38;16.08;;;2.80;97.00;;;;;;5054645;28;20204;-80
2021/01/09 06:07:49;;;;;;;24.13;16.67;;;2.80;96.90;;;;;;5054356;28;20673;-80
2021/01/09 06:10:17;;;;;;;27.65;16.95;;;2.80;96.80;;;;;;5053623;28;20215;-79
2021/01/09 06:12:55;;;;;;;25.48;17.17;;;2.70;99.90;;;;;;5054366;28;20668;-79
2021/01/09 06:15:24;;;;;;;24.60;18.50;;;3.60;97.30;;;;;;5050421;28;20245;-79
2021/01/09 06:17:52;;;;;;;28.65;18.38;;;2.70;97.20;;;;;;5054335;28;20250;-79
2021/01/09 06:20:19;;;;;;;26.55;18.25;;;2.40;99.90;;;;;;5053950;28;20223;-80
2021/01/09 06:22:46;;;;;;;24.30;17.00;;;2.30;96.70;;;;;;5055006;28;20196;-79
2021/01/09 06:25:13;;;;;;;26.50;18.50;;;2.30;97.50;;;;;;5053969;28;20224;-79
2021/01/09 06:27:41;;;;;;;26.17;17.88;;;2.40;97.90;;;;;;5053792;28;20204;-79
2021/01/09 06:30:10;;;;;;;27.90;17.95;;;2.40;98.00;;;;;;5054012;28;20240;-79
2021/01/09 06:32:40;;;;;;;23.10;16.92;;;2.30;97.70;;;;;;5051874;28;20249;-80
2021/01/09 06:35:09;;;;;;;32.05;19.42;;;2.40;97.90;;;;;;5053732;28;20249;-79
2021/01/09 06:37:36;;;;;;;31.40;19.45;;;2.60;98.00;;;;;;5053301;28;20203;-79
2021/01/09 06:40:04;;;;;;;25.33;17.30;;;2.60;97.60;;;;;;5052919;28;20231;-79
2021/01/09 06:42:31;;;;;;;29.60;19.15;;;2.60;97.50;;;;;;5054189;28;20196;-80
2021/01/09 06:45:01;;;;;;;27.15;18.42;;;2.50;99.90;;;;;;5053534;28;20254;-79
2021/01/09 06:47:28;;;;;;;29.33;19.45;;;2.60;97.70;;;;;;5052150;28;20200;-79
2021/01/09 06:49:56;;;;;;;30.52;19.20;;;2.60;97.60;;;;;;5053719;28;20200;-80
2021/01/09 06:52:23;;;;;;;34.78;19.23;;;2.50;97.50;;;;;;5053180;28;20223;-80
2021/01/09 06:54:51;;;;;;;27.10;17.73;;;2.60;97.70;;;;;;5053684;28;20297;-80
2021/01/09 06:57:20;;;;;;;26.45;19.70;;;2.60;97.70;;;;;;5052541;28;20510;-79
2021/01/09 06:59:49;;;;;;;32.83;20.05;;;2.60;97.60;;;;;;5053256;28;20203;-79
2021/01/09 07:02:18;;;;;;;28.60;17.10;;;2.60;97.60;;;;;;5053450;28;20559;-79
2021/01/09 07:05:03;;;;;;;30.73;17.90;;;2.40;97.40;;;;;;5052891;28;20227;-79
2021/01/09 07:07:38;;;;;;;27.65;18.50;;;2.50;97.80;;;;;;5052805;28;20237;-79
2021/01/09 07:10:15;;;;;;;25.08;17.48;;;2.20;97.60;;;;;;5053315;28;20208;-79
2021/01/09 07:12:47;;;;;;;31.08;18.38;;;2.40;98.20;;;;;;5052718;28;20214;-79
2021/01/09 07:15:16;;;;;;;27.73;18.20;;;2.60;98.30;;;;;;5053188;28;20555;-79
2021/01/09 07:17:48;;;;;;;30.98;20.50;;;2.50;97.90;;;;;;5052719;28;20200;-79
2021/01/09 07:20:17;;;;;;;30.80;17.30;;;2.50;97.90;;;;;;5052906;28;20207;-79
2021/01/09 07:22:51;;;;;;;28.73;17.95;;;2.30;97.60;;;;;;5033296;28;20220;-79
2021/01/09 07:25:29;;;;;;;28.08;17.33;;;1.90;98.10;;;;;;5047268;28;20665;-79
2021/01/09 07:27:57;;;;;;;27.10;17.88;;;1.90;98.80;;;;;;5052800;28;20235;-79
2021/01/09 07:30:25;;;;;;;29.38;19.13;;;2.10;99.20;;;;;;5053077;28;20250;-79
2021/01/09 07:32:54;;;;;;;27.73;18.25;;;2.40;99.10;;;;;;5052603;28;20654;-80
2021/01/09 07:35:23;;;;;;;27.63;17.90;;;2.50;98.40;;;;;;5052048;28;20200;-80
2021/01/09 07:37:52;;;;;;;32.35;18.90;;;2.50;97.80;;;;;;5052076;28;20194;-80
2021/01/09 07:40:21;;;;;;;31.05;18.77;;;2.60;97.60;;;;;;5052211;28;20204;-80
2021/01/09 07:42:49;;;;;;;29.45;17.52;;;2.60;97.50;;;;;;5052701;28;20206;-80
2021/01/09 07:45:18;;;;;;;25.60;16.77;;;2.60;97.50;;;;;;5052198;28;20305;-80
2021/01/09 07:47:46;;;;;;;28.85;17.80;;;2.60;97.30;;;;;;5051696;28;20203;-81
2021/01/09 07:50:15;;;;;;;27.67;17.15;;;2.50;97.10;;;;;;5052632;28;20192;-81
2021/01/09 07:52:42;;;;;;;26.35;18.90;;;2.50;97.30;;;;;;5053508;28;20538;-80
2021/01/09 07:55:10;;;;;;;31.83;21.33;;;2.60;97.40;;;;;;5051900;28;20289;-80
2021/01/09 07:57:39;;;;;;;30.85;20.30;;;2.60;97.30;;;;;;5051654;28;20185;-80
2021/01/09 08:00:13;;;;;;;32.05;19.00;;;2.70;97.20;;;;;;5051999;28;20200;-80
2021/01/09 08:02:40;;;;;;;25.85;18.00;;;2.70;97.30;;;;;;5051484;28;20924;-81
2021/01/09 08:05:09;;;;;;;28.73;19.50;;;2.70;97.30;;;;;;5050062;28;20685;-80
2021/01/09 08:07:37;;;;;;;29.60;18.88;;;2.60;97.40;;;;;;5050206;28;20820;-80
2021/01/09 08:10:24;;;;;;;27.52;18.65;;;2.60;97.50;;;;;;5050075;28;20211;-80
2021/01/09 08:12:56;;;;;;;25.13;15.88;;;2.70;97.60;;;;;;5049754;28;20214;-81
2021/01/09 08:15:25;;;;;;;27.52;18.48;;;2.70;97.50;;;;;;5050914;28;20203;-81
2021/01/09 08:17:51;;;;;;;23.77;16.45;;;2.60;97.40;;;;;;5050310;28;20207;-80
2021/01/09 08:20:18;;;;;;;25.65;17.10;;;2.60;97.50;;;;;;5051452;28;20192;-80
2021/01/09 08:22:58;;;;;;;25.58;15.98;;;2.60;97.70;;;;;;5052046;28;20208;-80
2021/01/09 08:25:26;;;;;;;22.15;14.88;;;2.70;98.00;;;;;;5051732;28;20200;-81
2021/01/09 08:27:54;;;;;;;27.42;15.80;;;2.60;97.80;;;;;;5051573;28;20208;-80
2021/01/09 08:30:22;;;;;;;23.52;15.35;;;2.60;97.70;;;;;;5051138;28;20538;-80
2021/01/09 08:32:49;;;;;;;21.85;16.08;;;2.70;97.90;;;;;;5051540;28;20568;-80
2021/01/09 08:35:16;;;;;;;23.98;17.08;;;2.70;97.70;;;;;;5064843;28;20199;-81
2021/01/09 08:37:44;;;;;;;20.80;15.63;;;2.80;99.90;;;;;;5070524;28;20235;-80
2021/01/09 08:40:20;;;;;;;23.00;15.65;;;2.80;97.60;;;;;;5051702;28;20242;-81
2021/01/09 08:43:01;;;;;;;21.50;16.70;;;2.80;97.90;;;;;;5051645;28;20236;-80
2021/01/09 08:45:48;;;;;;;27.10;18.13;;;2.80;97.50;;;;;;5050658;28;20200;-80
2021/01/09 08:48:18;;;;;;;26.10;16.20;;;2.80;97.40;;;;;;5050449;28;20282;-80
2021/01/09 08:50:57;;;;;;;23.13;16.42;;;2.80;97.30;;;;;;5051312;28;20683;-81
2021/01/09 08:53:27;;;;;;;23.08;15.30;;;2.90;97.30;;;;;;5050184;28;20203;-80
2021/01/09 08:56:01;;;;;;;23.42;15.35;;;2.90;97.30;;;;;;5051224;28;20196;-80
2021/01/09 08:58:30;;;;;;;24.50;16.45;;;2.90;97.10;;;;;;5050117;28;20219;-79
2021/01/09 09:00:57;;;;;;;21.73;15.02;;;3.00;97.10;;;;;;5051132;28;20685;-80
2021/01/09 09:03:25;;;;;;;28.27;17.25;;;3.00;97.00;;;;;;5050529;28;20697;-80
2021/01/09 09:05:52;;;;;;;27.13;15.68;;;3.00;96.90;;;;;;5051852;28;20623;-80
2021/01/09 09:08:19;;;;;;;24.80;15.43;;;3.00;96.90;;;;;;5050514;28;20274;-80
2021/01/09 09:10:47;;;;;;;25.45;16.35;;;3.10;96.70;;;;;;5051126;28;20224;-80
2021/01/09 09:13:21;;;;;;;29.20;17.02;;;3.00;99.90;;;;;;5050650;28;20231;-81
2021/01/09 09:15:49;;;;;;;30.00;18.40;;;3.80;96.90;;;;;;5051120;28;20203;-80
2021/01/09 09:18:17;;;;;;;29.05;19.05;;;3.10;99.90;;;;;;5050332;28;20246;-80
2021/01/09 09:20:49;;;;;;;28.08;18.63;;;3.10;96.50;;;;;;5050616;28;20192;-80
2021/01/09 09:23:24;;;;;;;30.33;18.35;;;3.00;99.90;;;;;;5050463;28;20196;-80
2021/01/09 09:26:07;;;;;;;25.17;17.25;;;2.90;96.20;;;;;;5050117;28;20203;-81
2021/01/09 09:28:44;;;;;;;24.67;16.80;;;2.90;96.50;;;;;;5049261;28;20726;-81
2021/01/09 09:31:18;;;;;;;26.83;16.80;;;3.00;96.70;;;;;;5050761;28;20238;-80
2021/01/09 09:34:02;;;;;;;26.35;16.25;;;3.00;96.50;;;;;;5049810;28;20208;-80
2021/01/09 09:36:31;;;;;;;25.65;17.40;;;2.90;96.20;;;;;;5050626;28;20200;-80
2021/01/09 09:38:57;;;;;;;25.17;16.73;;;2.70;96.60;;;;;;5050399;28;20295;-80
2021/01/09 09:41:24;;;;;;;26.08;16.42;;;2.70;96.80;;;;;;5050585;28;20200;-80
2021/01/09 09:43:58;;;;;;;27.52;16.50;;;2.80;97.20;;;;;;5050580;28;20224;-80
2021/01/09 09:46:25;;;;;;;28.80;17.92;;;2.80;97.00;;;;;;5050002;28;20196;-80
2021/01/09 09:48:52;;;;;;;26.30;16.35;;;2.90;96.90;;;;;;5049565;28;20685;-81
2021/01/09 09:51:19;;;;;;;23.70;16.60;;;3.00;97.20;;;;;;5050717;28;20199;-80
2021/01/09 09:53:54;;;;;;;26.77;17.50;;;2.90;96.80;;;;;;5050628;28;20689;-80
2021/01/09 09:56:22;;;;;;;22.25;16.60;;;3.10;96.50;;;;;;5050361;28;20230;-81
2021/01/09 09:58:59;;;;;;;23.65;16.83;;;3.10;96.30;;;;;;5049509;28;20222;-81
2021/01/09 10:01:27;;;;;;;30.27;18.40;;;3.40;96.40;;;;;;5048258;28;20296;-80
2021/01/09 10:03:53;;;;;;;25.50;16.30;;;3.30;96.30;;;;;;5049746;28;20228;-80
2021/01/09 10:06:20;;;;;;;25.27;18.98;;;3.20;95.70;;;;;;5049866;28;20208;-80
2021/01/09 10:08:46;;;;;;;21.02;14.63;;;3.30;95.80;;;;;;5049746;28;20558;-80
2021/01/09 10:11:14;;;;;;;24.85;16.83;;;3.40;95.30;;;;;;5049833;28;20696;-81
2021/01/09 10:13:40;;;;;;;23.60;15.57;;;3.30;94.70;;;;;;5049651;28;20204;-81
2021/01/09 10:16:06;;;;;;;23.85;15.10;;;3.40;94.50;;;;;;5054407;28;20211;-80
2021/01/09 10:18:35;;;;;;;21.77;14.48;;;3.20;94.60;;;;;;5053914;28;20204;-80
2021/01/09 10:21:03;;;;;;;24.95;17.13;;;3.10;94.50;;;;;;5054329;28;20220;-80
2021/01/09 10:23:30;;;;;;;20.08;13.82;;;3.10;94.80;;;;;;5053687;28;20322;-80
2021/01/09 10:25:57;;;;;;;23.27;14.45;;;3.00;94.80;;;;;;5053913;28;20599;-81
2021/01/09 10:28:24;;;;;;;20.73;14.30;;;3.00;95.10;;;;;;5053438;28;20282;-80
2021/01/09 10:30:51;;;;;;;20.75;13.40;;;3.20;95.30;;;;;;5054043;28;20208;-81
2021/01/09 10:33:17;;;;;;;20.13;14.98;;;3.20;94.70;;;;;;5053118;28;20200;-80
2021/01/09 10:35:48;;;;;;;20.65;15.52;;;3.10;94.40;;;;;;5054226;28;20200;-80
2021/01/09 10:38:16;;;;;;;22.95;15.02;;;3.50;95.20;;;;;;5053143;28;20215;-80
2021/01/09 10:40:43;;;;;;;19.38;14.23;;;2.80;95.40;;;;;;5053534;28;20544;-80
2021/01/09 10:43:10;;;;;;;20.95;14.15;;;3.10;95.30;;;;;;5053924;28;20215;-80
2021/01/09 10:45:37;;;;;;;20.67;14.23;;;3.20;95.00;;;;;;5054144;28;20199;-80
2021/01/09 10:48:04;;;;;;;23.38;14.23;;;3.20;94.60;;;;;;5053201;28;20200;-80
2021/01/09 10:50:30;;;;;;;23.35;14.07;;;3.40;99.90;;;;;;5053747;28;20228;-81
2021/01/09 10:52:57;;;;;;;20.48;15.73;;;3.40;94.40;;;;;;5053307;28;20204;-80
2021/01/09 10:55:23;;;;;;;21.33;15.25;;;3.50;94.00;;;;;;5053684;28;20208;-80
2021/01/09 10:57:49;;;;;;;15.80;12.13;;;3.20;93.70;;;;;;5053481;28;20569;-80
2021/01/09 11:00:17;;;;;;;21.48;13.30;;;3.50;93.40;;;;;;5053581;28;20239;-80
2021/01/09 11:02:44;;;;;;;18.85;12.68;;;3.50;92.50;;;;;;5053678;28;20216;-80
2021/01/09 11:05:11;;;;;;;19.63;12.27;;;3.40;92.50;;;;;;5053466;28;20621;-80
2021/01/09 11:07:37;;;;;;;13.95;10.98;;;3.50;92.40;;;;;;5052622;28;20565;-79
2021/01/09 11:10:05;;;;;;;14.57;10.45;;;3.60;92.00;;;;;;5054023;28;20231;-80
2021/01/09 11:12:31;;;;;;;17.77;11.55;;;3.70;92.00;;;;;;5053302;28;20206;-80
2021/01/09 11:14:58;;;;;;;16.90;11.48;;;4.00;91.50;;;;;;5053089;28;20211;-80
2021/01/09 11:17:24;;;;;;;17.00;12.73;;;4.20;91.30;;;;;;5052811;28;20200;-80
2021/01/09 11:19:51;;;;;;;16.77;11.07;;;4.40;91.00;;;;;;5053679;28;20461;-80
2021/01/09 11:22:18;;;;;;;17.05;12.77;;;4.40;90.50;;;;;;5053120;28;20231;-80
2021/01/09 11:24:44;;;;;;;19.80;11.02;;;4.50;90.80;;;;;;5053089;28;20227;-80
2021/01/09 11:27:11;;;;;;;13.82;9.38;;;4.60;90.90;;;;;;5053022;28;20200;-80
2021/01/09 11:29:37;;;;;;;14.07;9.95;;;4.60;89.10;;;;;;5053239;28;20677;-80
2021/01/09 11:32:05;;;;;;;17.23;12.40;;;4.60;88.30;;;;;;5053287;28;20226;-80
2021/01/09 11:34:32;;;;;;;16.55;10.98;;;4.60;89.20;;;;;;5052285;28;20730;-80
2021/01/09 11:36:59;;;;;;;14.80;11.68;;;4.60;89.40;;;;;;5052081;28;20232;-80
2021/01/09 11:39:26;;;;;;;21.13;12.32;;;4.50;90.30;;;;;;5052641;28;20723;-80
2021/01/09 11:41:57;;;;;;;16.77;12.45;;;4.60;90.10;;;;;;5053018;28;20196;-80
2021/01/09 11:44:23;;;;;;;19.00;11.65;;;3.90;97.60;;;;;;5052783;28;20255;-79
2021/01/09 11:46:50;;;;;;;15.70;13.05;;;3.90;91.30;;;;;;5052855;28;20586;-79
2021/01/09 11:49:16;;;;;;;15.02;11.90;;;3.80;90.40;;;;;;5052236;28;20208;-80
2021/01/09 11:51:43;;;;;;;16.50;10.10;;;3.90;90.10;;;;;;5053117;28;20202;-79
2021/01/09 11:54:10;;;;;;;19.00;13.23;;;3.90;89.70;;;;;;5053090;28;20226;-80
2021/01/09 11:56:36;;;;;;;20.02;11.00;;;3.80;89.80;;;;;;5052528;28;20214;-80
2021/01/09 11:59:03;;;;;;;12.85;8.82;;;3.70;89.10;;;;;;5052231;28;20204;-80
2021/01/09 12:01:36;;;;;;;15.07;11.45;;;3.60;86.80;;;;;;5052590;28;20216;-80
2021/01/09 12:04:03;;;;;;;11.48;9.57;;;3.40;94.20;;;;;;5051913;28;20776;-80
2021/01/09 12:06:30;;;;;;;12.73;10.23;;;3.70;94.50;;;;;;5052529;28;20455;-80
2021/01/09 12:08:57;;;;;;;15.90;10.20;;;;;;;;;;5051575;28;20211;-79
2021/01/09 12:11:24;;;;;;;12.13;9.35;;;3.50;85.40;;;;;;5052267;28;20207;-80
2021/01/09 12:13:50;;;;;;;12.43;9.43;;;3.50;86.70;;;;;;5052340;28;20215;-80
2021/01/09 12:16:27;;;;;;;12.27;8.70;;;3.50;85.30;;;;;;5052153;28;20207;-80
2021/01/09 12:18:53;;;;;;;13.30;9.88;;;3.50;85.00;;;;;;5052038;28;20247;-80
2021/01/09 12:21:20;;;;;;;15.02;10.25;;;3.60;84.00;;;;;;5052451;28;20200;-80
2021/01/09 12:23:46;;;;;;;13.98;10.30;;;3.90;85.00;;;;;;5052200;28;20455;-80
2021/01/09 12:26:17;;;;;;;13.13;9.70;;;3.60;93.50;;;;;;5052068;28;20204;-80
2021/01/09 12:28:44;;;;;;;10.07;8.85;;;3.70;83.40;;;;;;5051804;28;20207;-79
2021/01/09 12:31:11;;;;;;;12.20;9.50;;;3.70;83.20;;;;;;5051852;28;20243;-80
2021/01/09 12:33:37;;;;;;;11.38;9.07;;;3.60;83.40;;;;;;5051322;28;20203;-80
2021/01/09 12:36:05;;;;;;;12.57;8.20;;;3.60;84.20;;;;;;5052028;28;20223;-80
2021/01/09 12:38:31;;;;;;;12.07;9.43;;;3.50;85.30;;;;;;5051278;28;20727;-80
2021/01/09 12:40:58;;;;;;;10.70;8.98;;;3.70;98.00;;;;;;5051831;28;20583;-80
2021/01/09 12:43:24;;;;;;;15.13;10.48;;;3.80;93.10;;;;;;5051508;28;20276;-81